Time;durP1;ratioP1;P1;durP2;ratioP2;P2;SDS_P1;SDS_P2;PMS_P1;PMS_P2;Temp;Humidity;BMP_temperature;BMP_pressure;BME280_temperature;BME280_humidity;BME280_pressure;Samples;Min_cycle;Max_cycle;Signal;HPM_P1;HPM_P2
2023/01/04 00:02:20;;;;;;;6.68;1.20;;;24.70;99.90;;;;;;5035445;28;20305;-81
2023/01/04 00:04:51;;;;;;;7.28;1.60;;;24.70;99.90;;;;;;5033676;28;20285;-81
2023/01/04 00:07:23;;;;;;;5.32;1.33;;;24.80;99.90;;;;;;5024851;28;20202;-82
2023/01/04 00:09:54;;;;;;;6.55;1.30;;;24.80;99.90;;;;;;5024866;28;20246;-80
2023/01/04 00:12:25;;;;;;;5.22;1.30;;;24.80;99.90;;;;;;5026620;28;20214;-82
2023/01/04 00:14:56;;;;;;;6.00;1.42;;;24.80;99.90;;;;;;5017405;28;20251;-82
2023/01/04 00:17:26;;;;;;;8.48;1.58;;;24.90;99.90;;;;;;5026094;28;20564;-81
2023/01/04 00:19:57;;;;;;;8.65;1.60;;;25.10;99.90;;;;;;5030772;28;20289;-81
2023/01/04 00:22:30;;;;;;;6.95;1.80;;;25.10;99.90;;;;;;5024033;28;20191;-81
2023/01/04 00:25:01;;;;;;;7.15;1.50;;;25.00;99.90;;;;;;5036548;28;20233;-84
2023/01/04 00:27:31;;;;;;;6.22;1.58;;;24.80;99.90;;;;;;5033345;28;20199;-83
2023/01/04 00:30:02;;;;;;;7.57;1.60;;;24.60;99.90;;;;;;5030657;28;20309;-82
2023/01/04 00:32:34;;;;;;;6.65;1.58;;;24.50;99.90;;;;;;5023852;28;20708;-81
2023/01/04 00:35:05;;;;;;;6.80;1.67;;;24.40;99.90;;;;;;5035239;28;20222;-79
2023/01/04 00:37:38;;;;;;;5.40;1.55;;;24.40;99.90;;;;;;5018559;28;20194;-79
2023/01/04 00:40:09;;;;;;;8.07;1.67;;;24.30;99.90;;;;;;5035684;28;20204;-81
2023/01/04 00:42:40;;;;;;;8.73;1.77;;;24.30;99.90;;;;;;5035749;28;20296;-83
2023/01/04 00:45:11;;;;;;;6.57;1.58;;;24.20;99.90;;;;;;5035447;28;20190;-81
2023/01/04 00:47:42;;;;;;;4.97;1.48;;;24.20;99.90;;;;;;5035718;28;20321;-81
2023/01/04 00:50:13;;;;;;;6.53;1.40;;;24.10;99.90;;;;;;5035706;28;20226;-80
2023/01/04 00:52:46;;;;;;;7.38;1.58;;;24.30;99.90;;;;;;5035713;28;20278;-80
2023/01/04 00:55:16;;;;;;;9.68;1.60;;;24.20;99.90;;;;;;5035711;28;20190;-82
2023/01/04 00:57:47;;;;;;;8.48;1.80;;;24.10;99.90;;;;;;5035639;28;20361;-80
2023/01/04 01:00:18;;;;;;;6.22;1.50;;;24.10;99.90;;;;;;5035542;28;20560;-79
2023/01/04 01:02:49;;;;;;;8.23;1.92;;;24.10;99.90;;;;;;5032593;28;20311;-80
2023/01/04 01:05:20;;;;;;;5.18;1.50;;;24.00;99.90;;;;;;5035590;28;20194;-81
2023/01/04 01:07:53;;;;;;;4.32;1.40;;;23.80;99.90;;;;;;5035570;28;20281;-80
2023/01/04 01:10:24;;;;;;;7.15;1.63;;;23.70;99.90;;;;;;5035370;28;20229;-80
2023/01/04 01:12:54;;;;;;;6.10;1.50;;;23.60;99.90;;;;;;5035433;28;20194;-80
2023/01/04 01:15:25;;;;;;;8.30;1.63;;;23.50;99.90;;;;;;5035085;28;20195;-80
2023/01/04 01:17:56;;;;;;;8.32;1.38;;;23.40;99.90;;;;;;5035308;28;20285;-80
2023/01/04 01:20:27;;;;;;;9.00;1.98;;;23.40;99.90;;;;;;5035560;28;20198;-80
2023/01/04 01:22:59;;;;;;;7.55;1.63;;;23.30;99.90;;;;;;5035210;28;20201;-81
2023/01/04 01:25:30;;;;;;;5.25;2.08;;;23.30;99.90;;;;;;5035255;28;20190;-80
2023/01/04 01:28:01;;;;;;;7.32;1.75;;;23.20;99.90;;;;;;5035084;28;20190;-80
2023/01/04 01:30:32;;;;;;;7.35;1.23;;;23.10;99.90;;;;;;5034163;28;20214;-81
2023/01/04 01:33:02;;;;;;;5.32;1.45;;;23.10;99.90;;;;;;5035009;28;20220;-84
2023/01/04 01:35:35;;;;;;;6.68;1.73;;;23.10;99.90;;;;;;5034922;28;20190;-80
2023/01/04 01:38:08;;;;;;;8.38;2.10;;;23.10;99.90;;;;;;5034865;28;20538;-81
2023/01/04 01:40:43;;;;;;;7.55;2.00;;;23.10;99.90;;;;;;5034924;28;20197;-81
2023/01/04 01:43:19;;;;;;;7.05;1.80;;;23.10;99.90;;;;;;5034676;28;20200;-82
2023/01/04 01:45:51;;;;;;;6.25;1.80;;;23.10;99.90;;;;;;5047954;28;20197;-81
2023/01/04 01:48:26;;;;;;;7.68;1.85;;;23.40;99.90;;;;;;5054039;28;20272;-82
2023/01/04 01:51:00;;;;;;;8.70;1.65;;;23.70;99.90;;;;;;5054689;28;20213;-82
2023/01/04 01:53:37;;;;;;;8.98;1.85;;;24.00;99.90;;;;;;5054470;28;20198;-83
2023/01/04 01:56:10;;;;;;;7.15;1.80;;;24.20;99.90;;;;;;5054543;28;20312;-82
2023/01/04 01:58:45;;;;;;;6.97;1.95;;;24.40;99.90;;;;;;5043588;28;20630;-82
2023/01/04 02:01:17;;;;;;;11.25;2.65;;;24.60;99.90;;;;;;5028214;28;20725;-85
2023/01/04 02:03:47;;;;;;;5.80;1.65;;;24.50;99.90;;;;;;5034496;28;20638;-81
2023/01/04 02:06:22;;;;;;;7.10;1.92;;;24.40;99.90;;;;;;5019845;28;20286;-81
2023/01/04 02:08:55;;;;;;;6.47;1.48;;;24.40;99.90;;;;;;5014529;28;20191;-80
2023/01/04 02:11:27;;;;;;;6.30;1.55;;;24.40;99.90;;;;;;5014585;28;20669;-80
2023/01/04 02:16:58;;;;;;;4.88;1.58;;;24.50;99.90;;;;;;5015326;28;20560;-81
2023/01/04 02:19:56;;;;;;;7.22;1.55;;;24.40;99.90;;;;;;5034076;28;20586;-85
2023/01/04 02:23:00;;;;;;;6.35;1.80;;;24.50;99.90;;;;;;5034075;28;20195;-83
2023/01/04 02:25:52;;;;;;;7.20;1.63;;;24.40;99.90;;;;;;5031351;28;20208;-82
2023/01/04 02:28:39;;;;;;;5.80;1.38;;;24.50;99.90;;;;;;5033149;28;20274;-84
2023/01/04 02:31:29;;;;;;;5.45;2.03;;;24.30;99.90;;;;;;5033619;28;20316;-82
2023/01/04 02:34:07;;;;;;;7.57;2.10;;;24.10;99.90;;;;;;5033728;28;20661;-89
2023/01/04 02:36:43;;;;;;;5.60;1.50;;;24.10;99.90;;;;;;5033787;28;20281;-83
2023/01/04 02:39:26;;;;;;;5.50;1.63;;;24.00;99.90;;;;;;5033738;28;20198;-81
2023/01/04 02:42:04;;;;;;;6.00;1.52;;;24.00;99.90;;;;;;5033639;28;20285;-81
2023/01/04 02:44:56;;;;;;;8.75;1.52;;;23.90;99.90;;;;;;5033584;28;20204;-82
2023/01/04 02:50:32;;;;;;;6.47;2.10;;;23.80;99.90;;;;;;5033620;28;20695;-81
2023/01/04 02:53:08;;;;;;;7.13;2.10;;;23.70;99.90;;;;;;5033450;28;20560;-81
2023/01/04 02:55:48;;;;;;;7.53;1.67;;;23.60;99.90;;;;;;5013900;28;20253;-82
2023/01/04 02:58:38;;;;;;;7.38;1.70;;;23.60;99.90;;;;;;5014034;28;20222;-81
2023/01/04 03:07:03;;;;;;;4.03;1.58;;;23.30;99.90;;;;;;5013856;28;20194;-86
2023/01/04 03:09:38;;;;;;;6.28;1.83;;;23.20;99.90;;;;;;5013457;28;20702;-83
2023/01/04 03:12:32;;;;;;;6.05;1.77;;;23.10;99.90;;;;;;5013649;28;20282;-81
2023/01/04 03:15:08;;;;;;;7.03;1.90;;;23.00;99.90;;;;;;5013748;28;20710;-82
2023/01/04 03:17:44;;;;;;;6.13;1.98;;;22.90;99.90;;;;;;5013553;28;20191;-81
2023/01/04 03:20:19;;;;;;;7.72;2.28;;;22.90;99.90;;;;;;5013403;28;20730;-81
2023/01/04 03:37:18;;;;;;;7.55;1.90;;;22.70;99.90;;;;;;4978206;28;20245;-82
2023/01/04 03:48:42;;;;;;;9.02;2.45;;;22.30;99.90;;;;;;5013727;28;20225;-82
2023/01/04 03:51:16;;;;;;;9.55;2.95;;;22.10;99.90;;;;;;5013048;28;20218;-84
2023/01/04 03:53:56;;;;;;;8.05;2.38;;;21.90;99.90;;;;;;5012909;28;20195;-87
2023/01/04 03:56:28;;;;;;;7.35;2.30;;;21.90;99.90;;;;;;5013232;28;20194;-84
2023/01/04 03:58:59;;;;;;;7.78;2.17;;;21.70;99.90;;;;;;5013270;28;20308;-78
2023/01/04 04:01:30;;;;;;;9.48;2.80;;;21.70;99.90;;;;;;5026509;28;20289;-78
2023/01/04 04:09:35;;;;;;;8.82;2.28;;;21.50;99.90;;;;;;5032659;28;20189;-78
2023/01/04 04:12:06;;;;;;;6.25;2.15;;;21.40;99.90;;;;;;5034003;28;20277;-79
2023/01/04 04:14:37;;;;;;;7.07;2.33;;;21.40;99.90;;;;;;5036397;28;20279;-78
2023/01/04 04:17:08;;;;;;;9.77;2.42;;;21.40;99.90;;;;;;5036605;28;20644;-79
2023/01/04 04:19:39;;;;;;;7.20;2.40;;;21.40;99.90;;;;;;5036317;28;20277;-79
2023/01/04 04:22:09;;;;;;;7.55;2.50;;;21.40;99.90;;;;;;5036594;28;20222;-78
2023/01/04 04:24:42;;;;;;;8.93;2.78;;;21.40;99.90;;;;;;5036102;28;20194;-80
2023/01/04 04:27:13;;;;;;;6.15;2.30;;;21.40;99.90;;;;;;5036188;28;20190;-80
2023/01/04 04:29:44;;;;;;;6.85;2.22;;;21.50;99.90;;;;;;5036050;28;20194;-78
2023/01/04 04:32:14;;;;;;;5.80;2.30;;;21.50;99.90;;;;;;5036340;28;20321;-78
2023/01/04 04:34:45;;;;;;;4.68;2.20;;;21.40;99.90;;;;;;5036160;28;20194;-80
2023/01/04 04:37:16;;;;;;;6.68;2.20;;;21.40;99.90;;;;;;5035813;28;20196;-80
2023/01/04 04:39:49;;;;;;;3.67;1.75;;;21.40;99.90;;;;;;5035915;28;20196;-81
2023/01/04 04:42:18;;;;;;;3.47;1.80;;;21.50;99.90;;;;;;5036028;28;20190;-81
2023/01/04 04:44:49;;;;;;;6.03;1.73;;;21.50;99.90;;;;;;5035854;28;20288;-81
2023/01/04 04:47:20;;;;;;;6.68;1.70;;;21.50;99.90;;;;;;5035781;28;20236;-81
2023/01/04 04:49:50;;;;;;;5.57;1.80;;;21.40;99.90;;;;;;5035689;28;20285;-80
2023/01/04 04:52:21;;;;;;;4.63;1.58;;;21.40;99.90;;;;;;5035638;28;20269;-81
2023/01/04 04:54:54;;;;;;;5.15;1.50;;;21.40;99.90;;;;;;5035828;28;20277;-81
2023/01/04 04:57:25;;;;;;;4.15;1.60;;;21.30;99.90;;;;;;5035819;28;20389;-80
2023/01/04 04:59:55;;;;;;;6.00;1.70;;;21.30;99.90;;;;;;5035685;28;20208;-80
2023/01/04 05:02:26;;;;;;;5.05;1.77;;;21.30;99.90;;;;;;5035866;28;20273;-81
2023/01/04 05:04:57;;;;;;;4.85;1.95;;;21.40;99.90;;;;;;5035885;28;20273;-81
2023/01/04 05:07:28;;;;;;;4.78;1.73;;;21.40;99.90;;;;;;5035445;28;20197;-82
2023/01/04 05:10:00;;;;;;;6.13;1.92;;;21.30;99.90;;;;;;5035320;28;20712;-81
2023/01/04 05:15:18;;;;;;;6.97;2.00;;;21.20;99.90;;;;;;5035419;28;20196;-82
2023/01/04 05:17:48;;;;;;;4.55;1.83;;;21.20;99.90;;;;;;5035377;28;20187;-82
2023/01/04 05:20:19;;;;;;;5.93;1.67;;;21.20;99.90;;;;;;5035314;28;20294;-79
2023/01/04 05:22:50;;;;;;;4.78;1.73;;;21.20;99.90;;;;;;5034779;28;20192;-80
2023/01/04 05:25:23;;;;;;;5.45;1.90;;;21.20;99.90;;;;;;5034844;28;20192;-80
2023/01/04 05:27:54;;;;;;;7.70;1.67;;;21.20;99.90;;;;;;5035255;28;20201;-82
2023/01/04 05:33:11;;;;;;;6.43;1.65;;;21.20;99.90;;;;;;5025070;28;20673;-82
2023/01/04 05:35:42;;;;;;;8.30;1.80;;;21.20;99.90;;;;;;5029045;28;20205;-81
2023/01/04 05:38:13;;;;;;;6.43;1.60;;;21.20;99.90;;;;;;5021979;28;20194;-81
2023/01/04 05:40:46;;;;;;;4.93;1.38;;;21.20;99.90;;;;;;5019114;28;20285;-82
2023/01/04 05:43:17;;;;;;;5.22;1.42;;;21.10;99.90;;;;;;5017452;28;20293;-84
2023/01/04 05:45:50;;;;;;;3.75;1.27;;;21.10;99.90;;;;;;5026081;28;20194;-83
2023/01/04 05:48:22;;;;;;;4.80;1.20;;;21.00;99.90;;;;;;5029220;28;20209;-82
2023/01/04 05:50:54;;;;;;;6.72;1.60;;;21.00;99.90;;;;;;5028489;28;20210;-81
2023/01/04 05:53:24;;;;;;;2.58;1.00;;;21.00;99.90;;;;;;5017843;28;20205;-83
2023/01/04 05:55:57;;;;;;;6.57;1.40;;;20.90;99.90;;;;;;5014854;28;20278;-83
2023/01/04 05:58:28;;;;;;;5.05;0.95;;;20.80;99.90;;;;;;5023527;28;20662;-81
2023/01/04 06:00:59;;;;;;;3.50;0.88;;;20.70;99.90;;;;;;5030233;28;20198;-83
2023/01/04 06:03:29;;;;;;;4.07;1.10;;;20.70;99.90;;;;;;5027839;28;20644;-82
2023/01/04 06:06:00;;;;;;;2.97;0.80;;;20.80;99.90;;;;;;5026957;28;20282;-81
2023/01/04 06:08:31;;;;;;;1.88;0.70;;;20.80;99.90;;;;;;5034530;28;20238;-82
2023/01/04 06:11:04;;;;;;;3.13;0.70;;;20.80;99.90;;;;;;5029316;28;20298;-81
2023/01/04 06:13:35;;;;;;;1.85;0.60;;;20.70;99.90;;;;;;5028319;28;20208;-83
2023/01/04 06:16:05;;;;;;;1.80;0.57;;;20.70;99.90;;;;;;5030672;28;20194;-81
2023/01/04 06:18:36;;;;;;;0.73;0.50;;;20.60;99.90;;;;;;5033258;28;20194;-83
2023/01/04 06:21:07;;;;;;;0.90;0.40;;;20.70;99.90;;;;;;5032038;28;20197;-83
2023/01/04 06:23:38;;;;;;;1.92;0.50;;;20.60;99.90;;;;;;5020560;28;20199;-82
2023/01/04 06:26:10;;;;;;;1.10;0.38;;;20.60;99.90;;;;;;5034105;28;20285;-82
2023/01/04 06:28:41;;;;;;;2.90;0.30;;;20.50;99.90;;;;;;5028640;28;20202;-85
2023/01/04 06:31:13;;;;;;;0.98;0.50;;;20.50;99.90;;;;;;5033780;28;20316;-82
2023/01/04 06:33:44;;;;;;;1.35;0.40;;;20.40;99.90;;;;;;5033776;28;20197;-83
2023/01/04 06:36:15;;;;;;;0.93;0.40;;;20.40;99.90;;;;;;5018636;28;20199;-80
2023/01/04 06:38:46;;;;;;;0.77;0.40;;;20.40;99.90;;;;;;5029760;28;20289;-81
2023/01/04 06:41:18;;;;;;;1.77;0.50;;;20.40;99.90;;;;;;5032252;28;20233;-87
2023/01/04 06:43:49;;;;;;;2.22;0.50;;;20.40;99.90;;;;;;5032304;28;20198;-80
2023/01/04 06:46:20;;;;;;;2.65;0.60;;;20.30;99.90;;;;;;5032627;28;20325;-82
2023/01/04 06:48:52;;;;;;;2.70;0.65;;;20.30;99.90;;;;;;5033622;28;20617;-80
2023/01/04 06:51:23;;;;;;;2.35;0.65;;;20.30;99.90;;;;;;5031029;28;20305;-83
2023/01/04 06:53:54;;;;;;;2.65;0.47;;;20.30;99.90;;;;;;5033743;28;20291;-82
2023/01/04 06:56:27;;;;;;;1.88;0.57;;;20.20;99.90;;;;;;5033671;28;20277;-81
2023/01/04 06:58:57;;;;;;;2.53;0.50;;;20.20;99.90;;;;;;5021316;28;20605;-84
2023/01/04 07:01:28;;;;;;;2.25;0.60;;;20.20;99.90;;;;;;5013747;28;20286;-81
2023/01/04 07:03:59;;;;;;;3.70;0.73;;;20.10;99.90;;;;;;5019206;28;20195;-82
2023/01/04 07:06:30;;;;;;;3.60;0.60;;;20.10;99.90;;;;;;5033801;28;20277;-81
2023/01/04 07:09:01;;;;;;;1.83;0.60;;;20.20;99.90;;;;;;5031850;28;20198;-79
2023/01/04 07:11:33;;;;;;;3.63;0.70;;;20.10;99.90;;;;;;5021526;28;20645;-82
2023/01/04 07:14:04;;;;;;;2.90;0.75;;;20.10;99.90;;;;;;5024593;28;20194;-85
2023/01/04 07:16:35;;;;;;;2.72;0.70;;;20.10;99.90;;;;;;5033858;28;20282;-81
2023/01/04 07:19:06;;;;;;;5.00;0.80;;;20.10;99.90;;;;;;5033828;28;20186;-84
2023/01/04 07:21:37;;;;;;;2.45;0.80;;;20.10;99.90;;;;;;5027952;28;20202;-84
2023/01/04 07:24:07;;;;;;;1.83;0.68;;;20.10;99.90;;;;;;5019961;28;20201;-85
2023/01/04 07:26:40;;;;;;;2.63;0.60;;;20.00;99.90;;;;;;5032815;28;20202;-78
2023/01/04 07:29:17;;;;;;;3.67;0.70;;;20.00;99.90;;;;;;5031773;28;20194;-79
2023/01/04 07:31:49;;;;;;;4.50;0.70;;;20.00;99.90;;;;;;5031144;28;20234;-82
2023/01/04 07:34:22;;;;;;;3.33;0.90;;;20.00;99.90;;;;;;5032275;28;20281;-78
2023/01/04 07:36:53;;;;;;;4.90;0.98;;;20.00;99.90;;;;;;5025853;28;20277;-81
2023/01/04 07:39:24;;;;;;;2.90;0.80;;;20.10;99.90;;;;;;5024845;28;20278;-80
2023/01/04 07:41:57;;;;;;;2.53;0.65;;;20.10;99.90;;;;;;5033220;28;20204;-82
2023/01/04 07:44:28;;;;;;;1.83;0.70;;;20.10;99.90;;;;;;5029265;28;20216;-78
2023/01/04 07:46:59;;;;;;;4.78;0.90;;;20.30;99.90;;;;;;5034609;28;20237;-77
2023/01/04 07:49:30;;;;;;;2.80;0.80;;;20.60;99.90;;;;;;5026810;28;20281;-78
2023/01/04 07:52:01;;;;;;;3.55;0.70;;;20.60;99.90;;;;;;5031777;28;20304;-83
2023/01/04 07:54:32;;;;;;;4.45;0.85;;;20.60;99.90;;;;;;5032381;28;20191;-82
2023/01/04 07:57:05;;;;;;;5.88;0.90;;;20.60;99.90;;;;;;5033822;28;20197;-84
2023/01/04 07:59:36;;;;;;;6.15;1.25;;;20.50;99.90;;;;;;5036994;28;20301;-79
2023/01/04 08:02:06;;;;;;;3.40;0.98;;;20.50;99.90;;;;;;5031658;28;20205;-82
2023/01/04 08:04:37;;;;;;;3.92;1.00;;;20.50;99.90;;;;;;5024768;28;20230;-81
2023/01/04 08:07:08;;;;;;;8.07;1.10;;;20.50;99.90;;;;;;5032086;28;20624;-81
2023/01/04 08:09:39;;;;;;;4.20;0.68;;;20.40;99.90;;;;;;5028755;28;20208;-85
2023/01/04 08:12:12;;;;;;;3.42;0.80;;;20.20;99.90;;;;;;5029727;28;20305;-85
2023/01/04 08:14:43;;;;;;;5.63;0.98;;;20.20;99.90;;;;;;5033163;28;20237;-86
2023/01/04 08:17:14;;;;;;;3.15;0.70;;;20.20;99.90;;;;;;5032487;28;20722;-90
2023/01/04 08:19:45;;;;;;;5.65;0.70;;;20.20;99.90;;;;;;5022705;28;20672;-81
2023/01/04 08:22:16;;;;;;;4.43;0.80;;;20.10;99.90;;;;;;5028101;28;20209;-79
2023/01/04 08:24:47;;;;;;;6.53;0.80;;;20.10;99.90;;;;;;5034318;28;20281;-79
2023/01/04 08:27:20;;;;;;;3.38;0.70;;;20.20;99.90;;;;;;5036387;28;20747;-81
2023/01/04 08:29:51;;;;;;;3.72;0.75;;;20.10;99.90;;;;;;5029327;28;20202;-81
2023/01/04 08:32:22;;;;;;;2.15;0.70;;;20.10;99.90;;;;;;5032723;28;20292;-87
2023/01/04 08:34:53;;;;;;;4.22;0.90;;;20.10;99.90;;;;;;5030046;28;20233;-86
2023/01/04 08:37:23;;;;;;;2.63;0.65;;;20.00;99.90;;;;;;5031132;28;20238;-89
2023/01/04 08:39:54;;;;;;;2.47;0.73;;;20.00;99.90;;;;;;5036596;28;20282;-83
2023/01/04 08:42:27;;;;;;;3.55;0.70;;;20.00;99.90;;;;;;5032730;28;20191;-81
2023/01/04 08:44:59;;;;;;;2.22;0.80;;;20.00;99.90;;;;;;5035021;28;20248;-93
2023/01/04 08:47:30;;;;;;;5.10;0.90;;;19.90;99.90;;;;;;5031558;28;20654;-82
2023/01/04 08:50:02;;;;;;;6.50;0.80;;;19.90;99.90;;;;;;5030459;28;20285;-84
2023/01/04 08:52:32;;;;;;;2.33;0.63;;;19.90;99.90;;;;;;5030353;28;20580;-91
2023/01/04 08:55:03;;;;;;;2.97;0.68;;;19.90;99.90;;;;;;5029515;28;20316;-90
2023/01/04 08:57:37;;;;;;;2.22;0.50;;;19.90;99.90;;;;;;5034091;28;20194;-86
2023/01/04 09:00:08;;;;;;;2.55;0.60;;;19.90;99.90;;;;;;5028866;28;20282;-80
2023/01/04 09:02:39;;;;;;;2.45;0.90;;;19.80;99.90;;;;;;5036284;28;20669;-86
2023/01/04 09:05:11;;;;;;;1.77;0.35;;;19.80;99.90;;;;;;5032270;28;20285;-84
2023/01/04 09:07:41;;;;;;;2.13;0.40;;;19.80;99.90;;;;;;5033570;28;20204;-82
2023/01/04 09:10:13;;;;;;;2.00;0.50;;;19.70;99.90;;;;;;5034675;28;20209;-85
2023/01/04 09:12:46;;;;;;;3.55;0.60;;;19.70;99.90;;;;;;5035474;28;20272;-86
2023/01/04 09:15:18;;;;;;;3.05;0.50;;;19.70;99.90;;;;;;5035345;28;20198;-83
2023/01/04 09:17:50;;;;;;;4.95;0.52;;;19.70;99.90;;;;;;5035986;28;20248;-87
2023/01/04 09:20:21;;;;;;;1.67;0.45;;;19.70;99.90;;;;;;5035615;28;20252;-83
2023/01/04 09:22:52;;;;;;;1.52;0.30;;;19.70;99.90;;;;;;5032934;28;20234;-83
2023/01/04 09:25:22;;;;;;;1.83;0.40;;;19.70;99.90;;;;;;5035844;28;20268;-87
2023/01/04 09:27:55;;;;;;;1.52;0.47;;;19.70;99.90;;;;;;5032783;28;20672;-84
2023/01/04 09:30:26;;;;;;;1.88;0.40;;;19.70;99.90;;;;;;5028222;28;20278;-85
2023/01/04 09:32:57;;;;;;;1.27;0.50;;;19.70;99.90;;;;;;5033053;28;20240;-83
2023/01/04 09:35:28;;;;;;;2.63;0.55;;;19.70;99.90;;;;;;5035257;28;20194;-83
2023/01/04 09:37:59;;;;;;;2.80;0.60;;;19.70;99.90;;;;;;5032483;28;20289;-84
2023/01/04 09:40:35;;;;;;;3.10;0.50;;;19.70;99.90;;;;;;5035244;28;20213;-81
2023/01/04 09:43:14;;;;;;;2.55;0.47;;;19.70;99.90;;;;;;5027967;28;20190;-84
2023/01/04 09:45:45;;;;;;;2.35;0.60;;;19.60;99.90;;;;;;5016053;28;20249;-93
2023/01/04 09:48:21;;;;;;;2.92;0.55;;;19.60;99.90;;;;;;5015220;28;20230;-81
2023/01/04 09:50:55;;;;;;;2.47;0.60;;;19.60;99.90;;;;;;5015114;28;20191;-82
2023/01/04 09:53:30;;;;;;;2.50;0.65;;;19.50;99.90;;;;;;5022494;28;20229;-84
2023/01/04 09:56:08;;;;;;;3.13;0.70;;;19.50;99.90;;;;;;5020346;28;20381;-85
2023/01/04 09:58:42;;;;;;;1.23;0.50;;;19.50;99.90;;;;;;5018129;28;20198;-84
2023/01/04 10:01:18;;;;;;;2.55;0.80;;;19.50;99.90;;;;;;5023606;28;20200;-83
2023/01/04 10:03:55;;;;;;;3.72;0.60;;;19.50;99.90;;;;;;5033223;28;20313;-80
2023/01/04 10:06:25;;;;;;;2.33;0.85;;;19.40;99.90;;;;;;5027307;28;20274;-87
2023/01/04 10:09:00;;;;;;;3.20;0.63;;;19.40;99.90;;;;;;5023581;28;20237;-83
2023/01/04 10:11:48;;;;;;;5.28;0.70;;;19.40;99.90;;;;;;5033698;28;20197;-87
2023/01/04 10:14:35;;;;;;;1.75;0.28;;;19.40;99.90;;;;;;5031644;28;20206;-92
2023/01/04 10:17:20;;;;;;;2.45;0.47;;;19.40;99.90;;;;;;5033719;28;20195;-82
2023/01/04 10:20:05;;;;;;;2.78;0.40;;;19.40;99.90;;;;;;5028498;28;20578;-82
2023/01/04 10:22:47;;;;;;;3.00;0.60;;;19.40;99.90;;;;;;5027840;28;20194;-84
2023/01/04 10:25:31;;;;;;;3.17;0.60;;;19.40;99.90;;;;;;5024184;28;20241;-83
2023/01/04 10:28:14;;;;;;;1.98;0.45;;;19.40;99.90;;;;;;5032605;28;20224;-86
2023/01/04 10:30:55;;;;;;;1.48;0.52;;;19.40;99.90;;;;;;5032004;28;20772;-82
2023/01/04 10:33:36;;;;;;;1.20;0.40;;;19.40;99.90;;;;;;5024685;28;20226;-93
2023/01/04 10:36:16;;;;;;;2.13;0.60;;;19.40;99.90;;;;;;5022016;28;20228;-86
2023/01/04 10:38:47;;;;;;;3.35;0.60;;;19.40;99.90;;;;;;5033736;28;20202;-92
2023/01/04 10:41:25;;;;;;;0.90;0.40;;;19.40;99.90;;;;;;5033479;28;20190;-91
2023/01/04 10:44:07;;;;;;;2.65;0.40;;;19.30;99.90;;;;;;5032932;28;20289;-89
2023/01/04 10:46:46;;;;;;;1.27;0.30;;;19.40;99.90;;;;;;5027869;28;20239;-90
2023/01/04 10:49:25;;;;;;;2.50;0.30;;;19.40;99.90;;;;;;5022797;28;20199;-84
2023/01/04 10:52:01;;;;;;;2.47;0.32;;;19.40;99.90;;;;;;5021451;28;20289;-85
2023/01/04 10:54:40;;;;;;;2.40;0.50;;;19.40;99.90;;;;;;5027814;28;20279;-88
2023/01/04 10:57:14;;;;;;;1.83;0.25;;;19.40;99.90;;;;;;5029218;28;21884;-89
2023/01/04 10:59:50;;;;;;;1.15;0.30;;;19.40;99.90;;;;;;5030636;28;20284;-91
2023/01/04 11:02:29;;;;;;;2.58;0.50;;;19.40;99.90;;;;;;5022588;28;20295;-89
2023/01/04 11:05:05;;;;;;;2.33;0.50;;;19.40;99.90;;;;;;5029821;28;20683;-83
2023/01/04 11:07:41;;;;;;;2.05;0.63;;;19.40;99.90;;;;;;5025701;28;20665;-82
2023/01/04 11:10:16;;;;;;;2.15;0.60;;;19.40;99.90;;;;;;5030595;28;20281;-89
2023/01/04 11:12:47;;;;;;;1.48;0.40;;;19.40;99.90;;;;;;5023844;28;20752;-84
2023/01/04 11:15:18;;;;;;;3.13;0.57;;;19.40;99.90;;;;;;5019629;28;20205;-85
2023/01/04 11:17:52;;;;;;;2.15;0.57;;;19.40;99.90;;;;;;5029012;28;20205;-83
2023/01/04 11:20:23;;;;;;;3.28;0.50;;;19.30;99.90;;;;;;5031513;28;20318;-88
2023/01/04 11:23:00;;;;;;;1.20;0.50;;;19.30;99.90;;;;;;5030201;28;20216;-86
2023/01/04 11:25:35;;;;;;;2.70;0.60;;;19.30;99.90;;;;;;5032281;28;20194;-89
2023/01/04 11:28:14;;;;;;;2.15;0.40;;;19.30;99.90;;;;;;5028835;28;20838;-92
2023/01/04 11:30:52;;;;;;;2.58;0.50;;;19.30;99.90;;;;;;5023980;28;20226;-86
2023/01/04 11:33:26;;;;;;;2.72;0.65;;;19.30;99.90;;;;;;5013490;28;20225;-86
2023/01/04 11:36:01;;;;;;;2.95;0.55;;;19.20;99.90;;;;;;5013649;28;20205;-83
2023/01/04 11:38:33;;;;;;;4.72;0.60;;;19.20;99.90;;;;;;5013757;28;20191;-82
2023/01/04 11:41:05;;;;;;;1.38;0.30;;;19.20;99.90;;;;;;5018066;28;20205;-87
2023/01/04 11:43:37;;;;;;;3.63;0.50;;;19.20;99.90;;;;;;5033295;28;20642;-80
2023/01/04 11:46:09;;;;;;;4.68;0.60;;;19.20;99.90;;;;;;5029923;28;20233;-85
2023/01/04 11:48:44;;;;;;;2.30;0.43;;;19.20;99.90;;;;;;5024485;28;20292;-82
2023/01/04 11:51:35;;;;;;;4.95;0.55;;;19.20;99.90;;;;;;5026458;28;20273;-83
2023/01/04 11:54:09;;;;;;;2.83;0.40;;;19.20;99.90;;;;;;5032543;28;20253;-83
2023/01/04 11:56:40;;;;;;;2.55;0.47;;;19.20;99.90;;;;;;5031050;28;20193;-82
2023/01/04 11:59:20;;;;;;;2.72;0.40;;;19.10;99.90;;;;;;5016167;28;20273;-86
2023/01/04 12:01:52;;;;;;;2.00;0.52;;;19.10;99.90;;;;;;5025562;28;20202;-87
2023/01/04 12:04:28;;;;;;;3.33;0.52;;;19.10;99.90;;;;;;5031210;28;20218;-84
2023/01/04 12:07:01;;;;;;;3.55;0.70;;;19.10;99.90;;;;;;5032732;28;20244;-84
2023/01/04 12:09:33;;;;;;;2.72;0.50;;;19.10;99.90;;;;;;5033194;28;20274;-86
2023/01/04 12:12:06;;;;;;;1.67;0.52;;;19.00;99.90;;;;;;5031119;28;20199;-83
2023/01/04 12:14:42;;;;;;;1.38;0.50;;;19.00;99.90;;;;;;5023175;28;20232;-89
2023/01/04 12:17:18;;;;;;;2.38;0.80;;;19.00;99.90;;;;;;5024990;28;20238;-85
2023/01/04 12:19:52;;;;;;;1.52;0.38;;;19.00;99.90;;;;;;5015795;28;20214;-82
2023/01/04 12:22:31;;;;;;;2.55;0.57;;;19.00;99.90;;;;;;5013199;28;20658;-86
2023/01/04 12:25:02;;;;;;;2.40;0.43;;;18.90;99.90;;;;;;5013469;28;20345;-83
2023/01/04 12:27:33;;;;;;;1.95;0.40;;;18.90;99.90;;;;;;5013367;28;20717;-87
2023/01/04 12:30:08;;;;;;;4.18;0.50;;;18.90;99.90;;;;;;5029848;28;20218;-89
2023/01/04 12:32:44;;;;;;;2.83;0.40;;;18.90;99.90;;;;;;5032892;28;20676;-89
2023/01/04 12:36:03;;;;;;;4.03;0.68;;;18.90;99.90;;;;;;5035056;28;20236;-87
2023/01/04 12:39:21;;;;;;;1.83;0.52;;;18.90;99.90;;;;;;5036669;28;20217;-88
2023/01/04 12:42:28;;;;;;;1.52;0.60;;;18.90;99.90;;;;;;5029020;28;20249;-83
2023/01/04 12:45:21;;;;;;;4.32;0.45;;;18.90;99.90;;;;;;5016470;28;20277;-85
2023/01/04 12:51:22;;;;;;;1.65;0.75;;;18.90;99.90;;;;;;5024135;28;20265;-84
2023/01/04 12:54:01;;;;;;;5.32;0.77;;;18.90;99.90;;;;;;4993614;28;20309;-86
2023/01/04 12:57:07;;;;;;;2.00;0.63;;;18.90;99.90;;;;;;5035643;28;20210;-80
2023/01/04 12:59:41;;;;;;;2.55;0.60;;;19.00;99.90;;;;;;5033548;28;20202;-83
2023/01/04 13:02:27;;;;;;;6.90;0.90;;;18.90;99.90;;;;;;5033183;28;20574;-86
2023/01/04 13:04:59;;;;;;;5.70;0.98;;;19.00;99.90;;;;;;5027857;28;20194;-90
2023/01/04 13:07:33;;;;;;;3.38;1.00;;;18.90;99.90;;;;;;5020501;28;20205;-88
2023/01/04 13:10:20;;;;;;;5.13;1.08;;;19.00;99.90;;;;;;5015917;28;20226;-84
2023/01/04 13:13:26;;;;;;;4.38;0.90;;;19.00;99.90;;;;;;5016301;28;20277;-83
2023/01/04 13:16:12;;;;;;;4.68;1.00;;;19.00;99.90;;;;;;4979643;28;20282;-80
2023/01/04 13:18:45;;;;;;;4.93;0.90;;;18.90;99.90;;;;;;5023155;28;20209;-86
2023/01/04 13:21:25;;;;;;;6.35;0.90;;;19.00;99.90;;;;;;5033071;28;20285;-87
2023/01/04 13:23:58;;;;;;;7.35;1.20;;;19.00;99.90;;;;;;5033157;28;20200;-89
2023/01/04 13:26:44;;;;;;;6.05;1.20;;;18.90;99.90;;;;;;5033375;28;20206;-84
2023/01/04 13:29:18;;;;;;;3.28;0.80;;;19.00;99.90;;;;;;5026563;28;20277;-86
2023/01/04 13:31:54;;;;;;;3.15;0.70;;;19.00;99.90;;;;;;5034001;28;20309;-87
2023/01/04 13:34:46;;;;;;;4.63;0.90;;;19.00;99.90;;;;;;5054922;28;20229;-86
2023/01/04 13:37:30;;;;;;;4.40;0.90;;;18.90;99.90;;;;;;5041957;28;20198;-87
2023/01/04 13:40:19;;;;;;;4.95;1.17;;;18.90;99.90;;;;;;5032988;28;20286;-83
2023/01/04 13:42:51;;;;;;;4.93;1.13;;;18.90;99.90;;;;;;5035046;28;20281;-86
2023/01/04 13:45:52;;;;;;;8.32;1.30;;;18.80;99.90;;;;;;5034110;28;20194;-79
2023/01/04 13:48:27;;;;;;;5.55;1.23;;;18.70;99.90;;;;;;4996853;28;20262;-79
2023/01/04 13:51:06;;;;;;;7.32;1.17;;;18.60;99.90;;;;;;5054593;28;20645;-78
2023/01/04 13:53:36;;;;;;;6.05;1.25;;;18.50;99.90;;;;;;5054872;28;20220;-76
2023/01/04 13:56:07;;;;;;;6.93;1.20;;;18.50;99.90;;;;;;5054623;28;20645;-76
2023/01/04 13:58:38;;;;;;;7.50;1.40;;;18.40;99.90;;;;;;5032440;28;20288;-77
2023/01/04 14:01:16;;;;;;;7.00;1.20;;;18.30;99.90;;;;;;5029538;28;20206;-76
2023/01/04 14:03:50;;;;;;;5.70;1.05;;;18.20;99.90;;;;;;5030826;28;20661;-76
2023/01/04 14:06:24;;;;;;;4.88;1.30;;;18.30;99.90;;;;;;5018014;28;20714;-75
2023/01/04 14:09:05;;;;;;;7.72;1.50;;;18.20;99.90;;;;;;5032950;28;20286;-75
2023/01/04 14:12:00;;;;;;;6.47;1.40;;;18.20;99.90;;;;;;5030961;28;20284;-76
2023/01/04 14:14:49;;;;;;;6.68;1.30;;;18.20;99.90;;;;;;5016291;28;20230;-75
2023/01/04 14:17:28;;;;;;;7.75;1.52;;;18.10;99.90;;;;;;5014427;28;20287;-78